createdAt,value
2018-07-22T00:00:51.944Z,7.80
2018-07-22T00:03:20.474Z,8.00
2018-07-22T00:05:48.825Z,8.07
2018-07-22T00:08:17.215Z,5.90
2018-07-22T00:10:45.286Z,5.78
2018-07-22T00:13:13.375Z,5.30
2018-07-22T00:15:41.888Z,6.10
2018-07-22T00:18:09.956Z,8.00
2018-07-22T00:20:38.075Z,6.87
2018-07-22T00:23:06.178Z,6.00
2018-07-22T00:25:34.266Z,8.00
2018-07-22T00:28:02.334Z,5.80
2018-07-22T00:30:30.591Z,5.90
2018-07-22T00:32:58.650Z,6.13
2018-07-22T00:35:26.714Z,6.60
2018-07-22T00:37:55.098Z,5.63
2018-07-22T00:40:23.279Z,6.83
2018-07-22T00:42:51.352Z,7.30
2018-07-22T00:45:19.582Z,6.00
2018-07-22T00:47:47.840Z,6.73
2018-07-22T00:50:16.376Z,7.30
2018-07-22T00:52:44.682Z,6.37
2018-07-22T00:55:12.738Z,6.30
2018-07-22T00:57:40.794Z,7.87
2018-07-22T01:00:09.113Z,5.87
2018-07-22T01:02:37.126Z,6.93
2018-07-22T01:05:05.755Z,6.10
2018-07-22T01:07:34.106Z,8.78
2018-07-22T01:10:02.211Z,5.50
2018-07-22T01:12:30.667Z,6.20
2018-07-22T01:14:58.842Z,8.20
2018-07-22T01:17:27.021Z,6.43
2018-07-22T01:19:55.108Z,5.93
2018-07-22T01:22:23.457Z,7.50
2018-07-22T01:24:51.518Z,6.73
2018-07-22T01:27:19.578Z,7.97
2018-07-22T01:29:47.642Z,7.07
2018-07-22T01:32:15.709Z,5.63
2018-07-22T01:34:43.550Z,7.30
2018-07-22T01:37:11.762Z,6.50
2018-07-22T01:39:39.822Z,7.13
2018-07-22T01:42:07.966Z,5.80
2018-07-22T01:44:36.135Z,5.77
2018-07-22T01:47:04.198Z,6.33
2018-07-22T01:49:32.286Z,7.92
2018-07-22T01:52:00.418Z,6.33
2018-07-22T01:54:28.629Z,5.70
2018-07-22T01:56:57.010Z,5.77
2018-07-22T01:59:25.075Z,5.30
2018-07-22T02:01:53.154Z,6.93
2018-07-22T02:04:21.210Z,6.70
2018-07-22T02:06:49.500Z,5.83
2018-07-22T02:09:17.562Z,6.23
2018-07-22T02:11:45.723Z,5.13
2018-07-22T02:14:13.786Z,9.43
2018-07-22T02:16:41.922Z,5.70
2018-07-22T02:19:09.833Z,11.83
2018-07-22T02:21:37.938Z,7.10
2018-07-22T02:24:05.992Z,6.00
2018-07-22T02:26:34.078Z,6.30
2018-07-22T02:29:02.370Z,6.27
2018-07-22T02:31:30.444Z,8.77
2018-07-22T02:33:58.499Z,7.30
2018-07-22T02:36:26.734Z,6.20
2018-07-22T02:38:54.846Z,7.87
2018-07-22T02:41:22.925Z,8.23
2018-07-22T02:43:51.019Z,8.20
2018-07-22T02:46:19.125Z,9.30
2018-07-22T02:48:47.255Z,6.90
2018-07-22T02:51:15.805Z,7.13
2018-07-22T02:53:43.867Z,7.07
2018-07-22T02:56:11.946Z,8.13
2018-07-22T02:58:40.306Z,7.00
2018-07-22T03:01:08.389Z,7.80
2018-07-22T03:03:36.517Z,7.37
2018-07-22T03:06:04.721Z,8.23
2018-07-22T03:08:32.820Z,8.58
2018-07-22T03:11:00.916Z,8.53
2018-07-22T03:13:29.262Z,11.60
2018-07-22T03:15:57.331Z,12.00
2018-07-22T03:18:25.404Z,11.47
2018-07-22T03:20:53.486Z,11.43
2018-07-22T03:23:21.682Z,13.37
2018-07-22T03:25:49.759Z,17.50
2018-07-22T03:28:18.002Z,19.93
2018-07-22T03:30:46.062Z,19.93
2018-07-22T03:33:14.409Z,26.00
2018-07-22T03:35:42.477Z,22.90
2018-07-22T03:38:10.367Z,26.73
2018-07-22T03:40:38.667Z,27.37
2018-07-22T03:43:07.038Z,32.30
2018-07-22T03:45:35.108Z,31.33
2018-07-22T03:48:03.215Z,29.13
2018-07-22T03:50:31.278Z,28.77
2018-07-22T03:52:59.354Z,35.37
2018-07-22T03:55:27.436Z,36.10
2018-07-22T03:57:55.514Z,35.03
2018-07-22T04:00:23.794Z,35.27
2018-07-22T04:02:51.862Z,39.07
2018-07-22T04:05:20.302Z,40.87
2018-07-22T04:07:48.975Z,38.07
2018-07-22T04:10:17.011Z,40.10
2018-07-22T04:12:45.338Z,33.40
2018-07-22T04:15:13.418Z,40.53
2018-07-22T04:17:41.759Z,41.27
2018-07-22T04:20:10.166Z,42.63
2018-07-22T04:22:38.248Z,42.53
2018-07-22T04:25:06.347Z,45.00
2018-07-22T04:27:34.960Z,43.37
2018-07-22T04:30:03.040Z,45.93
2018-07-22T04:32:31.124Z,44.37
2018-07-22T04:35:00.193Z,48.43
2018-07-22T04:37:28.281Z,48.07
2018-07-22T04:39:56.345Z,45.88
2018-07-22T04:42:24.454Z,47.37
2018-07-22T04:44:52.610Z,47.50
2018-07-22T04:47:20.697Z,43.67
2018-07-22T04:49:49.070Z,39.97
2018-07-22T04:52:17.142Z,43.87
2018-07-22T04:54:45.270Z,49.20
2018-07-22T04:57:13.359Z,48.47
2018-07-22T04:59:41.583Z,48.80
2018-07-22T05:02:09.695Z,46.73
2018-07-22T05:04:38.080Z,54.53
2018-07-22T05:07:06.154Z,43.80
2018-07-22T05:09:34.225Z,53.77
2018-07-22T05:12:02.519Z,44.90
2018-07-22T05:14:30.582Z,52.53
2018-07-22T05:16:58.830Z,58.17
2018-07-22T05:19:27.162Z,54.20
2018-07-22T05:21:55.239Z,54.13
2018-07-22T05:24:23.349Z,55.77
2018-07-22T05:26:51.430Z,49.47
2018-07-22T05:29:19.601Z,48.00
2018-07-22T05:31:47.919Z,52.05
2018-07-22T05:34:15.984Z,54.80
2018-07-22T05:36:44.098Z,49.17
2018-07-22T05:39:12.707Z,44.30
2018-07-22T05:41:41.754Z,49.83
2018-07-22T05:44:09.830Z,38.27
2018-07-22T05:46:37.907Z,49.03
2018-07-22T05:49:06.224Z,48.23
2018-07-22T05:51:34.466Z,44.80
2018-07-22T05:54:02.617Z,42.30
2018-07-22T05:56:30.710Z,39.97
2018-07-22T05:58:58.775Z,36.80
2018-07-22T06:01:26.854Z,42.33
2018-07-22T06:03:54.922Z,32.73
2018-07-22T06:06:22.982Z,35.00
2018-07-22T06:08:51.062Z,33.90
2018-07-22T06:11:19.536Z,34.70
2018-07-22T06:13:47.650Z,28.10
2018-07-22T06:16:15.722Z,31.00
2018-07-22T06:18:44.166Z,25.50
2018-07-22T06:21:12.262Z,25.57
2018-07-22T06:23:40.378Z,23.80
2018-07-22T06:26:08.492Z,22.00
2018-07-22T06:28:36.614Z,25.45
2018-07-22T06:31:04.738Z,21.05
2018-07-22T06:33:33.206Z,20.35
2018-07-22T06:36:01.360Z,22.40
2018-07-22T06:38:29.463Z,20.37
2018-07-22T06:40:57.791Z,17.30
2018-07-22T06:43:25.866Z,20.35
2018-07-22T06:45:53.978Z,17.05
2018-07-22T06:48:22.376Z,14.60
2018-07-22T06:50:50.463Z,13.28
2018-07-22T06:53:18.594Z,13.05
2018-07-22T06:55:46.682Z,12.78
2018-07-22T06:58:14.778Z,12.20
2018-07-22T07:00:42.850Z,13.80
2018-07-22T07:03:11.191Z,10.63
2018-07-22T07:05:39.274Z,9.88
2018-07-22T07:08:07.418Z,10.28
2018-07-22T07:10:35.814Z,11.85
2018-07-22T07:13:03.906Z,6.80
2018-07-22T07:15:31.990Z,7.60
2018-07-22T07:18:00.357Z,7.30
2018-07-22T07:20:28.491Z,7.42
2018-07-22T07:22:56.630Z,7.67
2018-07-22T07:25:25.078Z,6.05
2018-07-22T07:27:53.134Z,9.73
2018-07-22T07:30:21.194Z,6.60
2018-07-22T07:32:49.616Z,4.35
2018-07-22T07:35:17.775Z,4.22
2018-07-22T07:37:45.986Z,8.80
2018-07-22T07:40:14.462Z,4.80
2018-07-22T07:42:42.519Z,4.10
2018-07-22T07:45:10.591Z,6.45
2018-07-22T07:47:38.962Z,5.00
2018-07-22T07:50:07.109Z,7.10
2018-07-22T07:52:35.186Z,5.30
2018-07-22T07:55:04.019Z,5.22
2018-07-22T07:57:32.114Z,4.72
2018-07-22T08:00:00.194Z,3.98
2018-07-22T08:02:28.527Z,5.47
2018-07-22T08:04:56.438Z,4.75
2018-07-22T08:07:24.524Z,5.28
2018-07-22T08:09:52.589Z,6.30
2018-07-22T08:12:20.677Z,4.85
2018-07-22T08:14:48.758Z,5.45
2018-07-22T08:17:17.898Z,5.33
2018-07-22T08:19:46.027Z,5.17
2018-07-22T08:22:14.113Z,4.55
2018-07-22T08:24:42.621Z,3.80
2018-07-22T08:27:10.691Z,3.45
2018-07-22T08:29:38.770Z,6.08
2018-07-22T08:32:07.512Z,6.75
2018-07-22T08:34:35.582Z,5.15
2018-07-22T08:37:03.655Z,4.25
2018-07-22T08:39:32.534Z,4.05
2018-07-22T08:42:01.024Z,8.08
2018-07-22T08:44:29.100Z,4.30
2018-07-22T08:46:57.168Z,5.22
2018-07-22T08:49:25.248Z,6.28
2018-07-22T08:51:54.218Z,4.80
2018-07-22T08:54:22.641Z,4.62
2018-07-22T08:56:50.835Z,4.62
2018-07-22T08:59:19.050Z,4.05
2018-07-22T09:01:47.411Z,4.35
2018-07-22T09:04:16.830Z,7.28
2018-07-22T09:06:47.209Z,4.65
2018-07-22T09:09:15.283Z,4.72
2018-07-22T09:11:43.541Z,5.20
2018-07-22T09:14:12.089Z,5.87
2018-07-22T09:16:41.990Z,4.53
2018-07-22T09:19:11.137Z,5.87
2018-07-22T09:21:39.673Z,5.62
2018-07-22T09:24:09.242Z,4.33
2018-07-22T09:26:37.297Z,9.10
2018-07-22T09:29:05.638Z,7.67
2018-07-22T09:31:33.714Z,6.55
2018-07-22T09:34:01.783Z,5.58
2018-07-22T09:36:30.195Z,8.78
2018-07-22T09:38:58.287Z,5.37
2018-07-22T09:41:26.418Z,6.10
2018-07-22T09:43:54.791Z,7.28
2018-07-22T09:46:22.831Z,5.58
2018-07-22T09:48:50.907Z,5.08
2018-07-22T09:51:19.003Z,6.72
2018-07-22T09:53:47.091Z,6.12
2018-07-22T09:56:15.339Z,5.83
2018-07-22T09:58:43.825Z,6.40
2018-07-22T10:01:11.917Z,6.95
2018-07-22T10:03:40.361Z,6.87
2018-07-22T10:06:08.925Z,6.47
2018-07-22T10:08:37.055Z,6.92
2018-07-22T10:11:05.520Z,7.47
2018-07-22T10:13:34.982Z,7.92
2018-07-22T10:16:02.811Z,9.83
2018-07-22T10:18:30.961Z,7.15
2018-07-22T10:21:01.044Z,7.05
2018-07-22T10:23:29.198Z,7.33
2018-07-22T10:25:57.254Z,7.83
2018-07-22T10:28:25.374Z,7.78
2018-07-22T10:30:53.482Z,6.37
2018-07-22T10:33:21.874Z,7.15
2018-07-22T10:35:50.250Z,7.60
2018-07-22T10:38:21.125Z,6.00
2018-07-22T10:40:49.392Z,6.87
2018-07-22T10:43:17.744Z,7.12
2018-07-22T10:45:45.846Z,7.28
2018-07-22T10:48:13.941Z,7.22
2018-07-22T10:50:42.330Z,9.38
2018-07-22T10:53:10.450Z,7.55
2018-07-22T10:55:38.339Z,8.10
2018-07-22T10:58:06.958Z,7.33
2018-07-22T11:00:35.555Z,8.23
2018-07-22T11:03:05.262Z,8.18
2018-07-22T11:05:33.582Z,9.30
2018-07-22T11:08:01.704Z,8.33
2018-07-22T11:10:29.908Z,7.85
2018-07-22T11:12:57.925Z,7.92
2018-07-22T11:15:26.008Z,7.83
2018-07-22T11:17:54.067Z,9.00
2018-07-22T11:20:22.397Z,11.10
2018-07-22T11:22:50.478Z,8.33
2018-07-22T11:25:18.662Z,8.50
2018-07-22T11:27:47.138Z,8.73
2018-07-22T11:30:15.210Z,7.45
2018-07-22T11:32:43.298Z,7.53
2018-07-22T11:35:11.354Z,8.30
2018-07-22T11:37:39.434Z,7.78
2018-07-22T11:40:07.522Z,11.33
2018-07-22T11:42:35.938Z,9.00
2018-07-22T11:45:04.432Z,7.47
2018-07-22T11:47:32.517Z,8.55
2018-07-22T11:50:00.854Z,8.73
2018-07-22T11:52:28.945Z,8.18
2018-07-22T11:54:57.032Z,9.03
2018-07-22T11:57:25.421Z,10.88
2018-07-22T11:59:53.523Z,10.20
2018-07-22T12:02:21.635Z,10.40
2018-07-22T12:04:50.027Z,10.88
2018-07-22T12:07:18.150Z,9.25
2018-07-22T12:09:46.086Z,12.80
2018-07-22T12:12:14.494Z,12.18
2018-07-22T12:14:42.567Z,11.53
2018-07-22T12:17:10.442Z,11.40
2018-07-22T12:19:38.824Z,10.35
2018-07-22T12:22:06.917Z,10.15
2018-07-22T12:24:35.013Z,9.28
2018-07-22T12:27:03.347Z,17.20
2018-07-22T12:29:33.095Z,9.55
2018-07-22T12:32:01.188Z,10.08
2018-07-22T12:34:30.367Z,9.83
2018-07-22T12:36:58.454Z,8.15
2018-07-22T12:39:26.550Z,6.95
2018-07-22T12:41:54.906Z,6.80
2018-07-22T12:44:23.045Z,7.62
2018-07-22T12:46:51.139Z,7.03
2018-07-22T12:49:19.509Z,7.67
2018-07-22T12:51:47.704Z,9.33
2018-07-22T12:54:16.147Z,8.90
2018-07-22T12:56:44.624Z,7.45
2018-07-22T12:59:12.700Z,6.97
2018-07-22T13:01:40.791Z,8.65
2018-07-22T13:04:09.166Z,7.15
2018-07-22T13:06:37.251Z,8.90
2018-07-22T13:09:07.415Z,8.60
2018-07-22T13:11:35.930Z,7.08
2018-07-22T13:14:04.214Z,6.83
2018-07-22T13:16:32.351Z,6.97
2018-07-22T13:19:01.064Z,8.30
2018-07-22T13:21:29.213Z,7.45
2018-07-22T13:23:58.243Z,7.08
2018-07-22T13:26:26.649Z,8.60
2018-07-22T13:28:54.729Z,11.10
2018-07-22T13:31:22.880Z,10.43
2018-07-22T13:33:51.618Z,7.22
2018-07-22T13:36:19.834Z,7.87
2018-07-22T13:38:47.994Z,9.08
2018-07-22T13:41:16.381Z,7.75
2018-07-22T13:43:44.566Z,10.15
2018-07-22T13:46:12.622Z,9.63
2018-07-22T13:48:41.009Z,14.20
2018-07-22T13:51:09.078Z,9.43
2018-07-22T13:53:37.150Z,11.73
2018-07-22T13:56:05.752Z,9.43
2018-07-22T13:58:33.805Z,10.38
2018-07-22T14:01:01.887Z,8.05
2018-07-22T14:03:30.267Z,8.35
2018-07-22T14:05:58.362Z,4.90
2018-07-22T14:08:26.478Z,5.58
2018-07-22T14:10:54.807Z,8.13
2018-07-22T14:13:22.967Z,8.08
2018-07-22T14:15:51.033Z,7.15
2018-07-22T14:18:19.415Z,8.00
2018-07-22T14:20:47.482Z,8.98
2018-07-22T14:23:15.558Z,6.37
2018-07-22T14:25:43.932Z,7.47
2018-07-22T14:28:12.091Z,10.28
2018-07-22T14:30:40.095Z,6.35
2018-07-22T14:33:08.643Z,6.70
2018-07-22T14:35:36.716Z,5.33
2018-07-22T14:38:04.854Z,4.78
2018-07-22T14:40:32.958Z,5.17
2018-07-22T14:43:01.015Z,4.25
2018-07-22T14:45:29.094Z,3.58
2018-07-22T14:47:57.390Z,3.45
2018-07-22T14:50:25.471Z,4.85
2018-07-22T14:52:53.544Z,3.70
2018-07-22T14:55:21.856Z,2.65
2018-07-22T14:57:49.929Z,3.70
2018-07-22T15:00:18.206Z,3.47
2018-07-22T15:02:46.507Z,2.87
2018-07-22T15:05:14.685Z,2.92
2018-07-22T15:07:42.762Z,3.45
2018-07-22T15:10:11.357Z,3.65
2018-07-22T15:12:39.430Z,3.85
2018-07-22T15:15:07.514Z,4.22
2018-07-22T15:17:35.872Z,3.58
2018-07-22T15:20:04.356Z,2.90
2018-07-22T15:22:32.474Z,3.45
2018-07-22T15:25:00.898Z,3.00
2018-07-22T15:27:29.256Z,4.47
2018-07-22T15:29:57.449Z,3.08
2018-07-22T15:32:25.752Z,4.30
2018-07-22T15:34:53.863Z,3.20
2018-07-22T15:37:21.915Z,3.12
2018-07-22T15:39:51.349Z,3.92
2018-07-22T15:42:19.490Z,3.37
2018-07-22T15:44:47.542Z,2.60
2018-07-22T15:47:16.025Z,3.20
2018-07-22T15:49:44.090Z,2.60
2018-07-22T15:52:12.248Z,3.10
2018-07-22T15:54:40.586Z,3.10
2018-07-22T15:57:08.691Z,2.87
2018-07-22T15:59:36.762Z,2.83
2018-07-22T16:02:06.131Z,2.92
2018-07-22T16:04:34.233Z,3.30
2018-07-22T16:07:02.140Z,3.55
2018-07-22T16:09:30.494Z,3.10
2018-07-22T16:11:58.561Z,2.58
2018-07-22T16:14:26.643Z,3.62
2018-07-22T16:16:55.039Z,3.27
2018-07-22T16:19:23.122Z,3.02
2018-07-22T16:21:51.198Z,2.80
2018-07-22T16:24:19.620Z,3.90
2018-07-22T16:26:47.715Z,3.62
2018-07-22T16:29:15.790Z,3.10
2018-07-22T16:31:44.249Z,3.45
2018-07-22T16:34:12.328Z,4.10
2018-07-22T16:36:40.504Z,4.97
2018-07-22T16:39:09.670Z,3.65
2018-07-22T16:41:38.090Z,3.75
2018-07-22T16:44:06.802Z,4.62
2018-07-22T16:46:35.227Z,3.98
2018-07-22T16:49:03.423Z,3.90
2018-07-22T16:51:31.593Z,4.28
2018-07-22T16:54:00.000Z,6.30
2018-07-22T16:56:28.075Z,5.28
2018-07-22T16:58:56.191Z,4.92
2018-07-22T17:01:24.610Z,4.83
2018-07-22T17:03:52.682Z,4.50
2018-07-22T17:06:20.798Z,6.03
2018-07-22T17:08:49.116Z,3.67
2018-07-22T17:11:17.246Z,4.78
2018-07-22T17:13:45.098Z,4.62
2018-07-22T17:16:13.202Z,4.75
2018-07-22T17:18:41.261Z,5.22
2018-07-22T17:21:09.335Z,6.87
2018-07-22T17:23:37.441Z,5.85
2018-07-22T17:26:05.537Z,5.70
2018-07-22T17:28:33.612Z,6.25
2018-07-22T17:31:01.969Z,6.67
2018-07-22T17:33:30.035Z,7.22
2018-07-22T17:35:58.097Z,6.55
2018-07-22T17:38:26.488Z,6.62
2018-07-22T17:40:54.545Z,7.70
2018-07-22T17:43:22.619Z,5.95
2018-07-22T17:45:50.683Z,7.33
2018-07-22T17:48:18.746Z,7.92
2018-07-22T17:50:46.837Z,6.33
2018-07-22T17:53:15.230Z,6.33
2018-07-22T17:55:43.306Z,6.45
2018-07-22T17:58:11.380Z,6.35
2018-07-22T18:00:39.475Z,6.08
2018-07-22T18:03:22.130Z,7.15
2018-07-22T18:05:50.854Z,5.40
2018-07-22T18:08:19.244Z,5.65
2018-07-22T18:10:47.628Z,5.35
2018-07-22T18:13:16.331Z,6.65
2018-07-22T18:15:44.403Z,5.25
2018-07-22T18:18:13.277Z,4.80
2018-07-22T18:20:41.891Z,5.25
2018-07-22T18:23:10.235Z,4.72
2018-07-22T18:25:38.995Z,5.78
2018-07-22T18:28:07.061Z,6.47
2018-07-22T18:30:35.136Z,5.00
2018-07-22T18:33:03.288Z,4.83
2018-07-22T18:35:31.634Z,4.42
2018-07-22T18:37:59.757Z,4.97
2018-07-22T18:40:27.827Z,4.83
2018-07-22T18:42:56.999Z,3.98
2018-07-22T18:45:25.416Z,4.03
2018-07-22T18:47:53.744Z,3.92
2018-07-22T18:50:22.154Z,7.10
2018-07-22T18:52:50.270Z,4.95
2018-07-22T18:55:18.652Z,5.53
2018-07-22T18:57:47.000Z,4.12
2018-07-22T19:00:15.287Z,4.03
2018-07-22T19:02:44.133Z,4.28
2018-07-22T19:05:12.595Z,3.98
2018-07-22T19:07:40.803Z,4.67
2018-07-22T19:10:08.874Z,4.08
2018-07-22T19:12:37.421Z,5.33
2018-07-22T19:15:05.534Z,4.28
2018-07-22T19:17:33.616Z,6.22
2018-07-22T19:20:02.017Z,4.83
2018-07-22T19:22:30.092Z,6.75
2018-07-22T19:24:58.161Z,5.28
2018-07-22T19:27:26.519Z,5.08
2018-07-22T19:29:54.582Z,6.45
2018-07-22T19:32:22.655Z,5.85
2018-07-22T19:34:50.983Z,5.62
2018-07-22T19:37:19.131Z,7.58
2018-07-22T19:39:47.216Z,6.50
2018-07-22T19:42:15.587Z,5.10
2018-07-22T19:44:46.137Z,7.87
2018-07-22T19:47:15.631Z,8.38
2018-07-22T19:49:43.710Z,6.45
2018-07-22T19:52:11.766Z,6.53
2018-07-22T19:54:39.881Z,7.00
2018-07-22T19:57:07.930Z,6.05
2018-07-22T19:59:36.086Z,7.12
2018-07-22T20:02:04.517Z,5.80
2018-07-22T20:04:32.591Z,13.50
2018-07-22T20:07:00.660Z,6.25
2018-07-22T20:09:29.059Z,7.00
2018-07-22T20:11:57.114Z,6.95
2018-07-22T20:14:25.189Z,15.83
2018-07-22T20:16:53.561Z,7.78
2018-07-22T20:19:21.720Z,7.10
2018-07-22T20:21:49.770Z,7.45
2018-07-22T20:24:18.280Z,11.15
2018-07-22T20:26:46.273Z,5.83
2018-07-22T20:29:14.230Z,6.12
2018-07-22T20:31:42.609Z,7.62
2018-07-22T20:34:10.718Z,7.75
2018-07-22T20:36:38.790Z,7.10
2018-07-22T20:39:09.260Z,7.28
2018-07-22T20:41:37.572Z,8.75
2018-07-22T20:44:06.154Z,8.90
2018-07-22T20:46:34.230Z,6.28
2018-07-22T20:49:02.305Z,6.53
2018-07-22T20:51:30.384Z,8.58
2018-07-22T20:53:58.447Z,7.90
2018-07-22T20:56:26.734Z,6.45
2018-07-22T20:58:54.815Z,6.22
2018-07-22T21:01:22.764Z,7.80
2018-07-22T21:03:50.815Z,5.90
2018-07-22T21:06:18.931Z,6.10
2018-07-22T21:08:47.363Z,6.37
2018-07-22T21:11:15.766Z,6.28
2018-07-22T21:13:43.827Z,5.95
2018-07-22T21:16:12.206Z,5.80
2018-07-22T21:18:40.259Z,6.28
2018-07-22T21:21:08.361Z,8.33
2018-07-22T21:23:36.392Z,6.45
2018-07-22T21:26:04.454Z,7.95
2018-07-22T21:28:32.540Z,7.25
2018-07-22T21:31:00.934Z,7.53
2018-07-22T21:33:29.309Z,6.83
2018-07-22T21:35:57.396Z,9.53
2018-07-22T21:38:25.765Z,6.90
2018-07-22T21:40:53.851Z,7.12
2018-07-22T21:43:21.930Z,8.95
2018-07-22T21:45:50.174Z,7.15
2018-07-22T21:48:18.267Z,8.73
2018-07-22T21:50:46.449Z,9.28
2018-07-22T21:53:14.914Z,8.35
2018-07-22T21:55:43.166Z,8.30
2018-07-22T21:58:11.400Z,8.23
2018-07-22T22:00:44.309Z,8.33
2018-07-22T22:03:12.165Z,7.97
2018-07-22T22:05:40.240Z,8.48
2018-07-22T22:08:08.666Z,9.83
2018-07-22T22:10:37.132Z,14.00
2018-07-22T22:13:05.470Z,8.45
2018-07-22T22:15:33.587Z,8.08
2018-07-22T22:18:02.810Z,9.23
2018-07-22T22:20:31.319Z,9.05
2018-07-22T22:22:59.968Z,8.55
2018-07-22T22:25:28.044Z,8.15
2018-07-22T22:27:56.175Z,11.30
2018-07-22T22:30:24.245Z,8.88
2018-07-22T22:32:52.311Z,9.10
2018-07-22T22:35:20.484Z,8.28
2018-07-22T22:37:48.908Z,9.85
2018-07-22T22:40:17.149Z,8.98
2018-07-22T22:42:46.213Z,9.38
2018-07-22T22:45:15.281Z,10.48
2018-07-22T22:47:43.326Z,9.05
2018-07-22T22:50:11.398Z,9.10
2018-07-22T22:52:39.486Z,8.30
2018-07-22T22:55:07.582Z,8.47
2018-07-22T22:57:35.650Z,8.98
2018-07-22T23:00:04.240Z,8.83
2018-07-22T23:02:34.302Z,9.38
2018-07-22T23:05:02.905Z,8.75
2018-07-22T23:07:30.990Z,8.68
2018-07-22T23:09:59.066Z,9.93
2018-07-22T23:12:27.146Z,9.63
2018-07-22T23:14:55.218Z,9.58
2018-07-22T23:17:23.282Z,10.10
2018-07-22T23:19:51.362Z,9.30
2018-07-22T23:22:19.482Z,12.78
2018-07-22T23:24:47.562Z,9.47
2018-07-22T23:27:15.644Z,14.00
2018-07-22T23:29:43.986Z,10.13
2018-07-22T23:32:12.074Z,10.25
2018-07-22T23:34:40.147Z,14.18
2018-07-22T23:37:08.270Z,9.40
2018-07-22T23:39:36.386Z,10.80
2018-07-22T23:42:04.487Z,10.40
2018-07-22T23:44:32.429Z,10.23
2018-07-22T23:47:00.599Z,9.18
2018-07-22T23:49:28.670Z,12.85
2018-07-22T23:51:57.138Z,10.17
2018-07-22T23:54:25.233Z,9.67
2018-07-22T23:56:53.294Z,9.93
2018-07-22T23:59:21.370Z,10.17
